createdAt,value
2022-11-09T00:00:51.449Z,5.80
2022-11-09T00:03:18.356Z,5.97
2022-11-09T00:05:55.396Z,5.60
2022-11-09T00:08:22.061Z,5.55
2022-11-09T00:10:48.613Z,5.35
2022-11-09T00:13:15.314Z,5.20
2022-11-09T00:15:42.130Z,5.03
2022-11-09T00:18:08.741Z,5.65
2022-11-09T00:20:35.364Z,5.50
2022-11-09T00:23:01.985Z,5.80
2022-11-09T00:25:28.654Z,5.43
2022-11-09T00:27:55.288Z,6.85
2022-11-09T00:30:21.910Z,6.53
2022-11-09T00:32:48.516Z,6.75
2022-11-09T00:35:15.494Z,5.95
2022-11-09T00:37:42.081Z,5.82
2022-11-09T00:40:09.638Z,6.13
2022-11-09T00:42:36.164Z,6.57
2022-11-09T00:45:02.831Z,6.15
2022-11-09T00:47:29.443Z,6.50
2022-11-09T00:49:57.000Z,6.50
2022-11-09T00:52:23.569Z,6.10
2022-11-09T00:54:50.170Z,6.68
2022-11-09T00:57:17.147Z,5.82
2022-11-09T00:59:43.780Z,6.45
2022-11-09T01:02:10.386Z,6.45
2022-11-09T01:04:37.056Z,6.15
2022-11-09T01:07:03.759Z,6.10
2022-11-09T01:09:30.432Z,6.35
2022-11-09T01:11:56.983Z,6.53
2022-11-09T01:14:24.042Z,6.93
2022-11-09T01:16:50.783Z,6.80
2022-11-09T01:19:17.317Z,7.43
2022-11-09T01:21:43.956Z,6.78
2022-11-09T01:24:11.019Z,7.10
2022-11-09T01:26:37.559Z,7.93
2022-11-09T01:29:04.083Z,7.45
2022-11-09T01:31:30.702Z,7.82
2022-11-09T01:33:57.194Z,8.68
2022-11-09T01:36:24.581Z,7.80
2022-11-09T01:38:51.741Z,7.40
2022-11-09T01:41:21.988Z,8.50
2022-11-09T01:44:11.600Z,8.77
2022-11-09T01:46:40.811Z,8.60
2022-11-09T01:49:20.923Z,9.00
2022-11-09T01:51:58.541Z,8.60
2022-11-09T01:54:31.943Z,8.32
2022-11-09T01:57:04.058Z,8.73
2022-11-09T01:59:34.116Z,8.38
2022-11-09T02:02:00.990Z,9.75
2022-11-09T02:04:33.224Z,8.93
2022-11-09T02:07:00.289Z,9.40
2022-11-09T02:09:49.445Z,10.23
2022-11-09T02:12:18.223Z,9.88
2022-11-09T02:14:45.577Z,9.10
2022-11-09T02:17:12.523Z,9.30
2022-11-09T02:19:39.055Z,9.30
2022-11-09T02:22:05.864Z,9.18
2022-11-09T02:24:33.897Z,9.30
2022-11-09T02:27:01.015Z,9.52
2022-11-09T02:29:37.279Z,9.00
2022-11-09T02:32:08.632Z,8.70
2022-11-09T02:34:35.209Z,9.00
2022-11-09T02:37:01.729Z,8.68
2022-11-09T02:39:28.854Z,7.95
2022-11-09T02:42:13.727Z,8.52
2022-11-09T02:44:47.892Z,7.53
2022-11-09T02:47:14.427Z,7.63
2022-11-09T02:49:41.210Z,6.75
2022-11-09T02:52:07.954Z,7.20
2022-11-09T02:54:34.550Z,6.10
2022-11-09T02:57:01.097Z,6.22
2022-11-09T02:59:27.622Z,6.80
2022-11-09T03:01:54.130Z,5.85
2022-11-09T03:04:20.738Z,6.43
2022-11-09T03:06:47.341Z,6.30
2022-11-09T03:09:13.916Z,5.88
2022-11-09T03:11:41.433Z,5.80
2022-11-09T03:14:09.807Z,5.78
2022-11-09T03:16:40.125Z,5.40
2022-11-09T03:19:07.258Z,4.95
2022-11-09T03:21:34.540Z,5.43
2022-11-09T03:24:01.134Z,4.72
2022-11-09T03:26:27.643Z,4.88
2022-11-09T03:28:54.194Z,4.68
2022-11-09T03:31:20.811Z,4.57
2022-11-09T03:33:47.429Z,4.55
2022-11-09T03:36:13.924Z,4.78
2022-11-09T03:38:40.466Z,4.68
2022-11-09T03:41:07.000Z,5.55
2022-11-09T03:43:33.558Z,5.00
2022-11-09T03:46:00.104Z,5.35
2022-11-09T03:48:26.663Z,5.07
2022-11-09T03:50:53.163Z,5.25
2022-11-09T03:53:19.983Z,6.03
2022-11-09T03:55:46.759Z,5.93
2022-11-09T03:58:13.351Z,6.00
2022-11-09T04:00:40.189Z,6.40
2022-11-09T04:03:06.821Z,6.35
2022-11-09T04:05:33.456Z,6.50
2022-11-09T04:08:00.201Z,5.60
2022-11-09T04:10:27.438Z,5.63
2022-11-09T04:12:54.289Z,5.60
2022-11-09T04:15:21.492Z,5.68
2022-11-09T04:17:59.147Z,6.20
2022-11-09T04:20:27.006Z,7.10
2022-11-09T04:22:57.951Z,6.90
2022-11-09T04:25:26.170Z,6.60
2022-11-09T04:27:57.362Z,7.25
2022-11-09T04:30:24.921Z,7.63
2022-11-09T04:32:51.529Z,7.10
2022-11-09T04:35:18.060Z,7.45
2022-11-09T04:37:44.647Z,7.82
2022-11-09T04:40:11.807Z,7.30
2022-11-09T04:42:38.340Z,8.10
2022-11-09T04:45:05.644Z,7.50
2022-11-09T04:47:32.211Z,7.25
2022-11-09T04:49:58.761Z,7.45
2022-11-09T04:52:25.278Z,7.13
2022-11-09T04:54:51.755Z,7.53
2022-11-09T04:57:18.280Z,7.85
2022-11-09T04:59:44.802Z,7.90
2022-11-09T05:02:11.376Z,7.10
2022-11-09T05:04:37.945Z,8.63
2022-11-09T05:07:04.542Z,7.70
2022-11-09T05:09:31.183Z,7.55
2022-11-09T05:11:57.777Z,7.93
2022-11-09T05:14:24.388Z,8.13
2022-11-09T05:16:50.989Z,7.90
2022-11-09T05:19:17.535Z,8.68
2022-11-09T05:21:44.235Z,7.72
2022-11-09T05:24:11.075Z,8.20
2022-11-09T05:26:39.943Z,8.13
2022-11-09T05:29:11.660Z,7.82
2022-11-09T05:31:39.026Z,7.82
2022-11-09T05:34:06.993Z,7.47
2022-11-09T05:36:34.031Z,8.18
2022-11-09T05:39:00.903Z,8.73
2022-11-09T05:41:28.060Z,8.70
2022-11-09T05:43:54.869Z,8.60
2022-11-09T05:46:21.403Z,9.02
2022-11-09T05:48:47.993Z,9.10
2022-11-09T05:51:15.418Z,9.05
2022-11-09T05:53:46.117Z,9.23
2022-11-09T05:56:13.657Z,10.18
2022-11-09T05:58:41.581Z,9.60
2022-11-09T06:01:13.531Z,9.98
2022-11-09T06:03:42.070Z,10.45
2022-11-09T06:06:10.447Z,10.75
2022-11-09T06:08:37.284Z,11.25
2022-11-09T06:11:06.699Z,11.82
2022-11-09T06:13:34.032Z,12.85
2022-11-09T06:16:03.178Z,13.63
2022-11-09T06:18:31.408Z,13.45
2022-11-09T06:21:01.147Z,13.43
2022-11-09T06:23:29.405Z,14.57
2022-11-09T06:26:09.729Z,15.05
2022-11-09T06:28:38.109Z,15.85
2022-11-09T06:31:07.357Z,15.98
2022-11-09T06:33:35.916Z,16.08
2022-11-09T06:36:03.265Z,15.23
2022-11-09T06:38:30.297Z,17.23
2022-11-09T06:40:59.489Z,17.92
2022-11-09T06:43:27.337Z,17.88
2022-11-09T06:45:54.315Z,18.45
2022-11-09T06:48:21.131Z,18.60
2022-11-09T06:50:47.745Z,19.40
2022-11-09T06:53:16.075Z,19.85
2022-11-09T06:55:48.801Z,19.65
2022-11-09T06:58:16.823Z,19.38
2022-11-09T07:00:44.498Z,20.38
2022-11-09T07:03:19.384Z,19.75
2022-11-09T07:05:47.188Z,19.55
2022-11-09T07:08:15.546Z,18.50
2022-11-09T07:10:42.603Z,18.90
2022-11-09T07:13:10.044Z,19.15
2022-11-09T07:15:37.605Z,18.75
2022-11-09T07:18:06.906Z,17.42
2022-11-09T07:20:33.922Z,17.92
2022-11-09T07:23:00.434Z,19.73
2022-11-09T07:25:27.457Z,18.98
2022-11-09T07:27:54.674Z,17.90
2022-11-09T07:30:21.755Z,18.90
2022-11-09T07:35:35.083Z,17.15
2022-11-09T07:38:02.239Z,16.67
2022-11-09T07:40:29.893Z,16.40
2022-11-09T07:43:04.594Z,17.33
2022-11-09T07:45:32.079Z,15.95
2022-11-09T07:48:01.114Z,15.77
2022-11-09T07:50:30.103Z,15.82
2022-11-09T07:52:57.964Z,16.67
2022-11-09T07:55:25.628Z,16.45
2022-11-09T07:58:00.232Z,16.23
2022-11-09T08:00:28.368Z,14.63
2022-11-09T08:02:55.145Z,14.52
2022-11-09T08:05:22.456Z,14.40
2022-11-09T08:07:53.985Z,12.65
2022-11-09T08:10:20.717Z,12.02
2022-11-09T08:12:53.750Z,11.90
2022-11-09T08:15:20.280Z,12.20
2022-11-09T08:17:46.915Z,12.32
2022-11-09T08:20:13.580Z,12.13
2022-11-09T08:22:43.948Z,11.65
2022-11-09T08:25:11.895Z,11.82
2022-11-09T08:27:40.336Z,12.30
2022-11-09T08:30:09.310Z,11.82
2022-11-09T08:32:35.847Z,11.18
2022-11-09T08:35:03.524Z,12.15
2022-11-09T08:37:30.045Z,13.63
2022-11-09T08:39:56.645Z,11.80
2022-11-09T08:42:23.176Z,13.05
2022-11-09T08:44:49.727Z,12.00
2022-11-09T08:47:16.321Z,11.60
2022-11-09T08:49:44.181Z,12.25
2022-11-09T08:52:10.758Z,12.30
2022-11-09T08:54:37.309Z,12.10
2022-11-09T08:57:03.899Z,12.73
2022-11-09T08:59:30.678Z,12.13
2022-11-09T09:01:57.311Z,12.32
2022-11-09T09:04:24.470Z,11.77
2022-11-09T09:06:51.268Z,12.05
2022-11-09T09:09:17.947Z,11.30
2022-11-09T09:11:44.557Z,11.00
2022-11-09T09:14:11.140Z,9.50
2022-11-09T09:16:37.770Z,9.55
2022-11-09T09:19:04.993Z,9.18
2022-11-09T09:21:31.535Z,8.43
2022-11-09T09:23:58.115Z,7.50
2022-11-09T09:26:24.708Z,7.13
2022-11-09T09:28:51.753Z,7.25
2022-11-09T09:31:19.013Z,6.70
2022-11-09T09:33:47.461Z,5.95
2022-11-09T09:36:19.882Z,7.05
2022-11-09T09:38:47.228Z,5.70
2022-11-09T09:41:24.183Z,5.38
2022-11-09T09:43:56.892Z,5.45
2022-11-09T09:46:39.841Z,5.28
2022-11-09T09:49:14.599Z,6.45
2022-11-09T09:51:50.385Z,6.38
2022-11-09T09:54:24.243Z,4.88
2022-11-09T09:56:53.384Z,4.13
2022-11-09T09:59:25.613Z,5.07
2022-11-09T10:01:52.815Z,5.05
2022-11-09T10:04:23.667Z,3.97
2022-11-09T10:07:09.497Z,3.47
2022-11-09T10:09:59.806Z,3.30
2022-11-09T10:12:56.445Z,3.17
2022-11-09T10:15:30.391Z,2.53
2022-11-09T10:18:23.313Z,2.50
2022-11-09T10:21:11.843Z,2.53
2022-11-09T10:23:41.792Z,3.00
2022-11-09T10:26:18.822Z,2.53
2022-11-09T10:29:19.401Z,2.38
2022-11-09T10:31:42.723Z,2.05
2022-11-09T10:34:27.725Z,2.08
2022-11-09T10:37:10.202Z,2.00
2022-11-09T10:39:53.058Z,1.83
2022-11-09T10:42:19.662Z,1.77
2022-11-09T10:44:46.176Z,1.90
2022-11-09T10:47:14.945Z,1.50
2022-11-09T10:49:41.594Z,1.80
2022-11-09T10:52:32.840Z,1.58
2022-11-09T10:55:21.821Z,1.67
2022-11-09T10:57:56.383Z,1.33
2022-11-09T11:00:35.420Z,1.20
2022-11-09T11:03:25.097Z,1.33
2022-11-09T11:06:01.157Z,1.40
2022-11-09T11:08:35.427Z,1.40
2022-11-09T11:11:35.826Z,1.75
2022-11-09T11:14:23.161Z,2.05
2022-11-09T11:16:53.105Z,2.10
2022-11-09T11:19:37.307Z,1.70
2022-11-09T11:22:13.031Z,1.70
2022-11-09T11:24:48.046Z,2.50
2022-11-09T11:27:25.388Z,1.70
2022-11-09T11:30:00.018Z,1.40
2022-11-09T11:32:26.787Z,2.00
2022-11-09T11:35:00.311Z,1.90
2022-11-09T11:38:12.028Z,2.53
2022-11-09T11:40:54.527Z,1.98
2022-11-09T11:43:27.719Z,1.50
2022-11-09T11:46:03.929Z,1.50
2022-11-09T11:48:54.258Z,2.40
2022-11-09T11:51:23.667Z,3.50
2022-11-09T11:54:18.187Z,1.83
2022-11-09T11:57:09.116Z,2.22
2022-11-09T12:00:06.622Z,4.13
2022-11-09T12:02:39.278Z,1.80
2022-11-09T12:05:35.877Z,1.80
2022-11-09T12:08:25.537Z,1.90
2022-11-09T12:11:03.195Z,1.83
2022-11-09T12:13:55.665Z,2.20
2022-11-09T12:16:25.776Z,1.05
2022-11-09T12:19:14.241Z,2.33
2022-11-09T12:22:01.319Z,2.38
2022-11-09T12:24:50.307Z,1.65
2022-11-09T12:27:31.987Z,1.60
2022-11-09T12:30:24.986Z,1.83
2022-11-09T12:32:59.291Z,1.35
2022-11-09T12:35:33.667Z,1.40
2022-11-09T12:38:24.163Z,1.15
2022-11-09T12:43:25.049Z,1.65
2022-11-09T12:45:53.261Z,1.33
2022-11-09T12:48:34.778Z,1.80
2022-11-09T12:51:04.855Z,1.40
2022-11-09T12:53:37.850Z,1.40
2022-11-09T12:56:20.722Z,1.45
2022-11-09T12:58:47.866Z,1.35
2022-11-09T13:01:34.418Z,1.30
2022-11-09T13:04:06.254Z,1.15
2022-11-09T13:06:33.954Z,1.50
2022-11-09T13:09:19.583Z,1.83
2022-11-09T13:11:52.140Z,1.40
2022-11-09T13:14:21.652Z,1.60
2022-11-09T13:16:53.350Z,1.48
2022-11-09T13:19:34.934Z,1.50
2022-11-09T13:22:02.965Z,1.45
2022-11-09T13:24:32.551Z,1.35
2022-11-09T13:27:02.095Z,1.33
2022-11-09T13:29:57.904Z,1.38
2022-11-09T13:32:29.588Z,1.73
2022-11-09T13:34:58.504Z,1.50
2022-11-09T13:37:47.615Z,1.83
2022-11-09T13:40:32.758Z,2.05
2022-11-09T13:43:10.220Z,1.60
2022-11-09T13:45:57.367Z,1.90
2022-11-09T13:48:49.227Z,2.25
2022-11-09T13:51:17.860Z,2.78
2022-11-09T13:54:04.588Z,2.55
2022-11-09T13:56:35.462Z,2.10
2022-11-09T13:59:20.897Z,1.40
2022-11-09T14:01:52.430Z,1.73
2022-11-09T14:04:43.705Z,1.40
2022-11-09T14:07:32.964Z,1.60
2022-11-09T14:10:24.428Z,1.60
2022-11-09T14:13:23.208Z,1.20
2022-11-09T14:16:22.433Z,1.13
2022-11-09T14:18:52.078Z,1.20
2022-11-09T14:21:28.509Z,1.40
2022-11-09T14:23:55.061Z,1.98
2022-11-09T14:26:25.222Z,1.95
2022-11-09T14:28:51.983Z,1.83
2022-11-09T14:31:29.734Z,2.20
2022-11-09T14:34:05.967Z,2.10
2022-11-09T14:36:34.972Z,1.58
2022-11-09T14:39:04.411Z,1.75
2022-11-09T14:41:31.482Z,1.70
2022-11-09T14:44:00.915Z,1.70
2022-11-09T14:46:30.688Z,1.42
2022-11-09T14:49:00.506Z,1.10
2022-11-09T14:51:48.493Z,1.40
2022-11-09T14:54:18.687Z,1.27
2022-11-09T14:56:46.349Z,1.15
2022-11-09T14:59:16.082Z,1.70
2022-11-09T15:02:00.852Z,1.20
2022-11-09T15:08:36.604Z,1.40
2022-11-09T15:13:52.187Z,1.95
2022-11-09T15:16:28.748Z,1.65
2022-11-09T15:18:55.341Z,1.95
2022-11-09T15:21:24.887Z,1.70
2022-11-09T15:24:22.161Z,1.60
2022-11-09T15:26:50.815Z,1.55
2022-11-09T15:29:40.200Z,1.40
2022-11-09T15:32:15.161Z,1.40
2022-11-09T15:34:53.115Z,1.60
2022-11-09T15:37:32.300Z,1.70
2022-11-09T15:39:59.389Z,2.50
2022-11-09T15:42:27.041Z,2.20
2022-11-09T15:44:59.331Z,1.60
2022-11-09T15:47:35.505Z,1.67
2022-11-09T15:50:15.052Z,1.33
2022-11-09T15:52:44.278Z,1.30
2022-11-09T15:55:15.586Z,1.40
2022-11-09T15:57:42.799Z,1.27
2022-11-09T16:00:19.488Z,1.30
2022-11-09T16:02:47.450Z,1.52
2022-11-09T16:05:14.364Z,1.38
2022-11-09T16:07:51.410Z,1.85
2022-11-09T16:10:20.389Z,1.45
2022-11-09T16:12:47.331Z,1.50
2022-11-09T16:15:13.982Z,1.23
2022-11-09T16:17:40.495Z,1.50
2022-11-09T16:20:07.730Z,1.75
2022-11-09T16:22:34.371Z,1.58
2022-11-09T16:25:01.600Z,1.35
2022-11-09T16:27:49.028Z,1.35
2022-11-09T16:30:15.384Z,1.55
2022-11-09T16:32:41.934Z,1.45
2022-11-09T16:35:26.191Z,1.50
2022-11-09T16:37:55.247Z,1.65
2022-11-09T16:40:22.689Z,2.10
2022-11-09T16:42:51.165Z,2.22
2022-11-09T16:45:17.773Z,2.00
2022-11-09T16:47:48.979Z,2.17
2022-11-09T16:50:16.163Z,1.85
2022-11-09T16:52:42.913Z,1.90
2022-11-09T16:55:10.498Z,1.85
2022-11-09T16:57:37.311Z,1.80
2022-11-09T17:00:06.169Z,2.13
2022-11-09T17:02:32.760Z,2.08
2022-11-09T17:04:59.413Z,2.15
2022-11-09T17:07:27.129Z,2.08
2022-11-09T17:09:53.734Z,2.28
2022-11-09T17:12:20.717Z,1.70
2022-11-09T17:14:47.513Z,1.70
2022-11-09T17:17:18.228Z,2.53
2022-11-09T17:19:47.880Z,3.10
2022-11-09T17:22:14.753Z,2.60
2022-11-09T17:24:41.753Z,2.60
2022-11-09T17:27:09.852Z,1.60
2022-11-09T17:29:37.969Z,1.70
2022-11-09T17:32:09.388Z,1.50
2022-11-09T17:34:36.308Z,1.80
2022-11-09T17:37:04.997Z,2.95
2022-11-09T17:39:32.648Z,4.40
2022-11-09T17:41:59.245Z,3.10
2022-11-09T17:44:25.812Z,3.08
2022-11-09T17:46:52.712Z,1.92
2022-11-09T17:49:19.364Z,2.22
2022-11-09T17:51:45.899Z,2.20
2022-11-09T17:54:14.709Z,2.00
2022-11-09T17:56:41.444Z,2.08
2022-11-09T17:59:08.215Z,1.83
2022-11-09T18:01:40.780Z,2.10
2022-11-09T18:04:09.669Z,2.45
2022-11-09T18:06:36.513Z,2.47
2022-11-09T18:09:39.262Z,2.55
2022-11-09T18:11:50.925Z,2.60
2022-11-09T18:14:17.419Z,2.55
2022-11-09T18:16:45.207Z,2.40
2022-11-09T18:19:12.067Z,2.10
2022-11-09T18:21:38.651Z,2.85
2022-11-09T18:24:05.486Z,2.50
2022-11-09T18:26:32.829Z,2.28
2022-11-09T18:29:00.364Z,2.60
2022-11-09T18:31:27.569Z,2.25
2022-11-09T18:33:54.151Z,2.38
2022-11-09T18:36:21.618Z,4.10
2022-11-09T18:38:51.192Z,4.32
2022-11-09T18:41:22.568Z,5.95
2022-11-09T18:43:50.768Z,3.58
2022-11-09T18:46:21.046Z,3.13
2022-11-09T18:48:52.557Z,3.90
2022-11-09T18:51:19.590Z,4.50
2022-11-09T18:53:47.357Z,3.47
2022-11-09T18:56:22.766Z,3.67
2022-11-09T18:58:52.883Z,3.50
2022-11-09T19:01:20.551Z,2.63
2022-11-09T19:03:47.189Z,2.63
2022-11-09T19:06:16.365Z,2.70
2022-11-09T19:09:01.583Z,3.85
2022-11-09T19:11:30.155Z,3.50
2022-11-09T19:13:56.700Z,3.40
2022-11-09T19:16:24.261Z,3.10
2022-11-09T19:18:50.847Z,3.13
2022-11-09T19:21:37.314Z,2.97
2022-11-09T19:24:04.307Z,3.05
2022-11-09T19:26:30.946Z,2.78
2022-11-09T19:28:57.853Z,3.40
2022-11-09T19:31:25.186Z,3.30
2022-11-09T19:33:52.690Z,4.00
2022-11-09T19:36:30.097Z,3.28
2022-11-09T19:38:58.280Z,3.20
2022-11-09T19:41:25.743Z,3.10
2022-11-09T19:43:58.703Z,3.15
2022-11-09T19:46:26.907Z,3.00
2022-11-09T19:48:53.455Z,3.40
2022-11-09T19:51:20.235Z,2.85
2022-11-09T19:53:52.055Z,2.75
2022-11-09T19:56:19.318Z,2.78
2022-11-09T19:58:54.195Z,3.08
2022-11-09T20:01:21.449Z,3.28
2022-11-09T20:03:51.905Z,3.35
2022-11-09T20:06:20.311Z,3.67
2022-11-09T20:08:47.767Z,3.40
2022-11-09T20:11:42.033Z,3.42
2022-11-09T20:14:09.947Z,3.58
2022-11-09T20:16:37.993Z,3.50
2022-11-09T20:19:05.877Z,3.50
2022-11-09T20:21:33.293Z,3.28
2022-11-09T20:24:01.845Z,3.58
2022-11-09T20:26:28.821Z,2.85
2022-11-09T20:28:55.662Z,2.90
2022-11-09T20:31:22.806Z,3.58
2022-11-09T20:33:50.620Z,3.38
2022-11-09T20:36:41.070Z,3.60
2022-11-09T20:39:14.469Z,3.35
2022-11-09T20:41:41.006Z,3.20
2022-11-09T20:44:08.207Z,3.50
2022-11-09T20:46:36.807Z,3.90
2022-11-09T20:49:04.192Z,4.00
2022-11-09T20:51:32.220Z,3.72
2022-11-09T20:54:02.485Z,3.58
2022-11-09T20:56:33.245Z,3.45
2022-11-09T20:58:59.751Z,4.13
2022-11-09T21:01:26.381Z,3.10
2022-11-09T21:03:53.849Z,3.13
2022-11-09T21:06:21.856Z,3.22
2022-11-09T21:08:50.885Z,3.20
2022-11-09T21:11:18.268Z,4.13
2022-11-09T21:13:52.114Z,3.78
2022-11-09T21:16:20.157Z,3.08
2022-11-09T21:18:47.193Z,2.92
2022-11-09T21:21:17.145Z,3.00
2022-11-09T21:24:02.759Z,3.47
2022-11-09T21:26:48.126Z,3.42
2022-11-09T21:29:38.731Z,3.13
2022-11-09T21:32:06.044Z,3.10
2022-11-09T21:34:36.878Z,3.53
2022-11-09T21:37:04.627Z,3.58
2022-11-09T21:39:31.328Z,3.50
2022-11-09T21:41:57.905Z,3.50
2022-11-09T21:44:25.165Z,4.00
2022-11-09T21:46:51.681Z,3.67
2022-11-09T21:49:18.379Z,3.55
2022-11-09T21:51:46.709Z,4.05
2022-11-09T21:54:13.291Z,4.07
2022-11-09T21:56:40.105Z,4.18
2022-11-09T21:59:06.811Z,4.10
2022-11-09T22:01:33.820Z,4.03
2022-11-09T22:04:00.455Z,3.42
2022-11-09T22:06:27.751Z,3.70
2022-11-09T22:08:54.259Z,3.67
2022-11-09T22:11:46.009Z,3.63
2022-11-09T22:14:32.871Z,3.85
2022-11-09T22:16:59.871Z,3.67
2022-11-09T22:19:45.998Z,4.40
2022-11-09T22:22:13.546Z,4.45
2022-11-09T22:24:40.168Z,3.67
2022-11-09T22:27:06.907Z,4.80
2022-11-09T22:29:33.501Z,4.45
2022-11-09T22:32:00.232Z,5.05
2022-11-09T22:34:26.815Z,5.25
2022-11-09T22:36:53.391Z,5.15
2022-11-09T22:39:20.335Z,5.72
2022-11-09T22:41:46.890Z,5.68
2022-11-09T22:44:13.543Z,5.20
2022-11-09T22:46:40.132Z,5.13
2022-11-09T22:49:08.555Z,4.75
2022-11-09T22:51:35.286Z,5.22
2022-11-09T22:54:01.807Z,4.78
2022-11-09T22:56:28.335Z,4.32
2022-11-09T22:58:55.214Z,3.83
2022-11-09T23:01:21.994Z,3.60
2022-11-09T23:03:48.612Z,3.70
2022-11-09T23:06:20.131Z,3.25
2022-11-09T23:08:47.359Z,3.25
2022-11-09T23:11:19.241Z,3.30
2022-11-09T23:13:52.476Z,3.42
2022-11-09T23:16:19.753Z,3.83
2022-11-09T23:18:56.215Z,3.20
2022-11-09T23:21:24.716Z,3.63
2022-11-09T23:23:52.284Z,3.50
2022-11-09T23:26:19.254Z,3.17
2022-11-09T23:28:46.118Z,3.67
2022-11-09T23:31:19.531Z,3.28
2022-11-09T23:33:49.088Z,3.22
2022-11-09T23:36:15.650Z,3.53
2022-11-09T23:38:42.189Z,3.10
2022-11-09T23:41:11.559Z,3.20
2022-11-09T23:43:38.574Z,3.33
2022-11-09T23:46:08.443Z,3.88
2022-11-09T23:48:35.671Z,3.25
2022-11-09T23:51:03.445Z,3.17
2022-11-09T23:53:31.494Z,3.35
2022-11-09T23:56:06.184Z,3.05
2022-11-09T23:58:33.256Z,3.63
